sensor_id;sensor_type;location;lat;lon;timestamp;P1;durP1;ratioP1;P2;durP2;ratioP2
74245;SDS011;62601;51.044;13.788;2023-06-22T00:01:17;10.67;;;9.77;;
74245;SDS011;62601;51.044;13.788;2023-06-22T00:03:37;10.37;;;9.57;;
74245;SDS011;62601;51.044;13.788;2023-06-22T00:05:57;10.47;;;9.53;;
74245;SDS011;62601;51.044;13.788;2023-06-22T00:08:17;10.57;;;9.57;;
74245;SDS011;62601;51.044;13.788;2023-06-22T00:10:38;10.20;;;9.20;;
74245;SDS011;62601;51.044;13.788;2023-06-22T00:12:58;10.77;;;9.87;;
74245;SDS011;62601;51.044;13.788;2023-06-22T00:15:18;13.87;;;9.77;;
74245;SDS011;62601;51.044;13.788;2023-06-22T00:17:38;10.30;;;9.33;;
74245;SDS011;62601;51.044;13.788;2023-06-22T00:19:58;11.30;;;10.10;;
74245;SDS011;62601;51.044;13.788;2023-06-22T00:22:19;11.30;;;10.20;;
74245;SDS011;62601;51.044;13.788;2023-06-22T00:24:39;10.37;;;9.57;;
74245;SDS011;62601;51.044;13.788;2023-06-22T00:26:59;10.10;;;9.10;;
74245;SDS011;62601;51.044;13.788;2023-06-22T00:29:19;9.90;;;9.00;;
74245;SDS011;62601;51.044;13.788;2023-06-22T00:31:39;10.63;;;9.63;;
74245;SDS011;62601;51.044;13.788;2023-06-22T00:33:59;11.17;;;10.07;;
74245;SDS011;62601;51.044;13.788;2023-06-22T00:36:19;10.80;;;9.83;;
74245;SDS011;62601;51.044;13.788;2023-06-22T00:38:39;10.70;;;9.77;;
74245;SDS011;62601;51.044;13.788;2023-06-22T00:40:59;10.00;;;9.10;;
74245;SDS011;62601;51.044;13.788;2023-06-22T00:43:19;12.60;;;10.30;;
74245;SDS011;62601;51.044;13.788;2023-06-22T00:45:40;10.77;;;9.87;;
74245;SDS011;62601;51.044;13.788;2023-06-22T00:48:00;10.60;;;9.60;;
74245;SDS011;62601;51.044;13.788;2023-06-22T00:50:21;10.80;;;9.80;;
74245;SDS011;62601;51.044;13.788;2023-06-22T00:52:41;10.93;;;10.03;;
74245;SDS011;62601;51.044;13.788;2023-06-22T00:55:02;11.27;;;10.30;;
74245;SDS011;62601;51.044;13.788;2023-06-22T00:57:23;10.63;;;9.63;;
74245;SDS011;62601;51.044;13.788;2023-06-22T00:59:44;10.47;;;9.57;;
74245;SDS011;62601;51.044;13.788;2023-06-22T01:02:05;10.63;;;9.73;;
74245;SDS011;62601;51.044;13.788;2023-06-22T01:04:33;10.97;;;10.07;;
74245;SDS011;62601;51.044;13.788;2023-06-22T01:06:54;10.47;;;9.50;;
74245;SDS011;62601;51.044;13.788;2023-06-22T01:09:20;10.80;;;9.80;;
74245;SDS011;62601;51.044;13.788;2023-06-22T01:11:44;10.80;;;9.80;;
74245;SDS011;62601;51.044;13.788;2023-06-22T01:14:15;10.40;;;9.50;;
74245;SDS011;62601;51.044;13.788;2023-06-22T01:16:40;11.83;;;10.60;;
74245;SDS011;62601;51.044;13.788;2023-06-22T01:19:01;11.13;;;10.20;;
74245;SDS011;62601;51.044;13.788;2023-06-22T01:21:26;11.00;;;10.00;;
74245;SDS011;62601;51.044;13.788;2023-06-22T01:24:51;10.17;;;9.17;;
74245;SDS011;62601;51.044;13.788;2023-06-22T01:26:38;11.53;;;10.37;;
74245;SDS011;62601;51.044;13.788;2023-06-22T01:29:00;12.27;;;10.40;;
74245;SDS011;62601;51.044;13.788;2023-06-22T01:31:25;10.70;;;9.70;;
74245;SDS011;62601;51.044;13.788;2023-06-22T01:33:46;11.27;;;10.27;;
74245;SDS011;62601;51.044;13.788;2023-06-22T01:36:08;11.27;;;9.80;;
74245;SDS011;62601;51.044;13.788;2023-06-22T01:38:29;11.93;;;10.73;;
74245;SDS011;62601;51.044;13.788;2023-06-22T01:40:50;10.53;;;9.57;;
74245;SDS011;62601;51.044;13.788;2023-06-22T01:43:10;11.93;;;10.40;;
74245;SDS011;62601;51.044;13.788;2023-06-22T01:45:30;10.93;;;9.93;;
74245;SDS011;62601;51.044;13.788;2023-06-22T01:47:50;10.60;;;9.70;;
74245;SDS011;62601;51.044;13.788;2023-06-22T01:50:11;10.20;;;9.30;;
74245;SDS011;62601;51.044;13.788;2023-06-22T01:52:32;10.67;;;9.77;;
74245;SDS011;62601;51.044;13.788;2023-06-22T01:54:52;10.53;;;9.63;;
74245;SDS011;62601;51.044;13.788;2023-06-22T01:57:12;10.63;;;9.73;;
74245;SDS011;62601;51.044;13.788;2023-06-22T01:59:34;10.73;;;9.70;;
74245;SDS011;62601;51.044;13.788;2023-06-22T02:02:01;10.83;;;9.67;;
74245;SDS011;62601;51.044;13.788;2023-06-22T02:04:24;10.77;;;9.77;;
74245;SDS011;62601;51.044;13.788;2023-06-22T02:06:46;10.00;;;9.10;;
74245;SDS011;62601;51.044;13.788;2023-06-22T02:09:12;11.07;;;10.07;;
74245;SDS011;62601;51.044;13.788;2023-06-22T02:11:34;13.33;;;10.40;;
74245;SDS011;62601;51.044;13.788;2023-06-22T02:13:55;10.40;;;9.50;;
74245;SDS011;62601;51.044;13.788;2023-06-22T02:16:15;10.97;;;9.97;;
74245;SDS011;62601;51.044;13.788;2023-06-22T02:18:35;11.93;;;10.73;;
74245;SDS011;62601;51.044;13.788;2023-06-22T02:20:56;11.37;;;10.37;;
74245;SDS011;62601;51.044;13.788;2023-06-22T02:23:16;11.53;;;10.50;;
74245;SDS011;62601;51.044;13.788;2023-06-22T02:25:36;11.13;;;10.13;;
74245;SDS011;62601;51.044;13.788;2023-06-22T02:27:56;10.70;;;9.70;;
74245;SDS011;62601;51.044;13.788;2023-06-22T02:30:16;11.80;;;10.70;;
74245;SDS011;62601;51.044;13.788;2023-06-22T02:32:36;12.13;;;11.03;;
74245;SDS011;62601;51.044;13.788;2023-06-22T02:34:56;10.53;;;9.50;;
74245;SDS011;62601;51.044;13.788;2023-06-22T02:37:16;11.40;;;10.30;;
74245;SDS011;62601;51.044;13.788;2023-06-22T02:39:37;10.70;;;9.80;;
74245;SDS011;62601;51.044;13.788;2023-06-22T02:41:57;12.63;;;10.87;;
74245;SDS011;62601;51.044;13.788;2023-06-22T02:44:17;12.73;;;11.63;;
74245;SDS011;62601;51.044;13.788;2023-06-22T02:46:37;12.37;;;10.73;;
74245;SDS011;62601;51.044;13.788;2023-06-22T02:48:57;11.50;;;10.40;;
74245;SDS011;62601;51.044;13.788;2023-06-22T02:51:17;12.97;;;10.80;;
74245;SDS011;62601;51.044;13.788;2023-06-22T02:53:38;15.43;;;11.43;;
74245;SDS011;62601;51.044;13.788;2023-06-22T02:55:58;11.67;;;10.60;;
74245;SDS011;62601;51.044;13.788;2023-06-22T02:58:18;12.73;;;11.53;;
74245;SDS011;62601;51.044;13.788;2023-06-22T03:00:38;12.17;;;11.00;;
74245;SDS011;62601;51.044;13.788;2023-06-22T03:02:58;11.60;;;10.47;;
74245;SDS011;62601;51.044;13.788;2023-06-22T03:05:18;11.43;;;10.23;;
74245;SDS011;62601;51.044;13.788;2023-06-22T03:07:41;11.47;;;10.47;;
74245;SDS011;62601;51.044;13.788;2023-06-22T03:10:02;11.97;;;10.90;;
74245;SDS011;62601;51.044;13.788;2023-06-22T03:12:22;11.37;;;10.27;;
74245;SDS011;62601;51.044;13.788;2023-06-22T03:14:42;11.57;;;10.50;;
74245;SDS011;62601;51.044;13.788;2023-06-22T03:17:02;11.50;;;10.47;;
74245;SDS011;62601;51.044;13.788;2023-06-22T03:19:22;12.13;;;11.03;;
74245;SDS011;62601;51.044;13.788;2023-06-22T03:21:42;12.33;;;10.40;;
74245;SDS011;62601;51.044;13.788;2023-06-22T03:24:02;11.17;;;10.07;;
74245;SDS011;62601;51.044;13.788;2023-06-22T03:26:23;12.90;;;11.60;;
74245;SDS011;62601;51.044;13.788;2023-06-22T03:28:43;13.53;;;9.93;;
74245;SDS011;62601;51.044;13.788;2023-06-22T03:31:03;11.43;;;10.33;;
74245;SDS011;62601;51.044;13.788;2023-06-22T03:33:23;11.83;;;10.30;;
74245;SDS011;62601;51.044;13.788;2023-06-22T03:35:44;11.30;;;10.20;;
74245;SDS011;62601;51.044;13.788;2023-06-22T03:38:04;11.30;;;10.20;;
74245;SDS011;62601;51.044;13.788;2023-06-22T03:40:24;11.53;;;10.43;;
74245;SDS011;62601;51.044;13.788;2023-06-22T03:42:45;11.40;;;10.27;;
74245;SDS011;62601;51.044;13.788;2023-06-22T03:45:05;11.70;;;10.63;;
74245;SDS011;62601;51.044;13.788;2023-06-22T03:47:25;11.33;;;10.30;;
74245;SDS011;62601;51.044;13.788;2023-06-22T03:49:45;12.80;;;10.53;;
74245;SDS011;62601;51.044;13.788;2023-06-22T03:52:05;11.50;;;10.30;;
74245;SDS011;62601;51.044;13.788;2023-06-22T03:54:26;10.57;;;9.53;;
74245;SDS011;62601;51.044;13.788;2023-06-22T03:56:47;11.67;;;9.33;;
74245;SDS011;62601;51.044;13.788;2023-06-22T03:59:07;11.67;;;9.60;;
74245;SDS011;62601;51.044;13.788;2023-06-22T04:01:27;10.73;;;9.80;;
74245;SDS011;62601;51.044;13.788;2023-06-22T04:03:47;10.80;;;9.70;;
74245;SDS011;62601;51.044;13.788;2023-06-22T04:06:07;12.77;;;10.40;;
74245;SDS011;62601;51.044;13.788;2023-06-22T04:08:27;11.40;;;10.20;;
74245;SDS011;62601;51.044;13.788;2023-06-22T04:10:47;11.47;;;10.37;;
74245;SDS011;62601;51.044;13.788;2023-06-22T04:13:07;12.43;;;10.80;;
74245;SDS011;62601;51.044;13.788;2023-06-22T04:15:28;11.20;;;10.13;;
74245;SDS011;62601;51.044;13.788;2023-06-22T04:17:48;12.43;;;11.23;;
74245;SDS011;62601;51.044;13.788;2023-06-22T04:20:08;12.10;;;10.97;;
74245;SDS011;62601;51.044;13.788;2023-06-22T04:22:28;12.93;;;11.60;;
74245;SDS011;62601;51.044;13.788;2023-06-22T04:24:49;16.60;;;11.80;;
74245;SDS011;62601;51.044;13.788;2023-06-22T04:27:09;11.20;;;10.10;;
74245;SDS011;62601;51.044;13.788;2023-06-22T04:29:29;11.87;;;10.67;;
74245;SDS011;62601;51.044;13.788;2023-06-22T04:31:49;12.40;;;10.77;;
74245;SDS011;62601;51.044;13.788;2023-06-22T04:34:09;13.63;;;12.23;;
74245;SDS011;62601;51.044;13.788;2023-06-22T04:36:30;11.37;;;10.10;;
74245;SDS011;62601;51.044;13.788;2023-06-22T04:38:50;13.03;;;11.50;;
74245;SDS011;62601;51.044;13.788;2023-06-22T04:41:10;12.40;;;11.10;;
74245;SDS011;62601;51.044;13.788;2023-06-22T04:43:30;13.13;;;11.60;;
74245;SDS011;62601;51.044;13.788;2023-06-22T04:45:50;22.93;;;15.43;;
74245;SDS011;62601;51.044;13.788;2023-06-22T04:48:10;12.90;;;11.60;;
74245;SDS011;62601;51.044;13.788;2023-06-22T04:50:30;14.70;;;12.57;;
74245;SDS011;62601;51.044;13.788;2023-06-22T04:52:50;14.40;;;12.70;;
74245;SDS011;62601;51.044;13.788;2023-06-22T04:55:11;13.83;;;12.40;;
74245;SDS011;62601;51.044;13.788;2023-06-22T04:57:31;13.60;;;11.67;;
74245;SDS011;62601;51.044;13.788;2023-06-22T04:59:51;13.80;;;12.10;;
74245;SDS011;62601;51.044;13.788;2023-06-22T05:02:11;14.87;;;12.00;;
74245;SDS011;62601;51.044;13.788;2023-06-22T05:04:31;13.67;;;12.03;;
74245;SDS011;62601;51.044;13.788;2023-06-22T05:06:51;12.77;;;11.47;;
74245;SDS011;62601;51.044;13.788;2023-06-22T05:09:13;13.07;;;11.77;;
74245;SDS011;62601;51.044;13.788;2023-06-22T05:11:33;13.20;;;11.87;;
74245;SDS011;62601;51.044;13.788;2023-06-22T05:13:53;12.90;;;11.60;;
74245;SDS011;62601;51.044;13.788;2023-06-22T05:16:13;12.23;;;11.13;;
74245;SDS011;62601;51.044;13.788;2023-06-22T05:18:34;13.30;;;11.67;;
74245;SDS011;62601;51.044;13.788;2023-06-22T05:20:54;15.37;;;11.97;;
74245;SDS011;62601;51.044;13.788;2023-06-22T05:23:14;12.13;;;10.57;;
74245;SDS011;62601;51.044;13.788;2023-06-22T05:25:34;12.63;;;11.53;;
74245;SDS011;62601;51.044;13.788;2023-06-22T05:27:54;11.63;;;10.53;;
74245;SDS011;62601;51.044;13.788;2023-06-22T05:30:14;13.13;;;11.37;;
74245;SDS011;62601;51.044;13.788;2023-06-22T05:32:34;15.13;;;12.60;;
74245;SDS011;62601;51.044;13.788;2023-06-22T05:34:55;11.73;;;10.53;;
74245;SDS011;62601;51.044;13.788;2023-06-22T05:37:15;12.47;;;11.20;;
74245;SDS011;62601;51.044;13.788;2023-06-22T05:39:35;13.17;;;11.90;;
74245;SDS011;62601;51.044;13.788;2023-06-22T05:41:55;13.13;;;11.80;;
74245;SDS011;62601;51.044;13.788;2023-06-22T05:44:15;12.77;;;11.47;;
74245;SDS011;62601;51.044;13.788;2023-06-22T05:46:35;12.03;;;10.93;;
74245;SDS011;62601;51.044;13.788;2023-06-22T05:48:55;12.70;;;11.30;;
74245;SDS011;62601;51.044;13.788;2023-06-22T05:51:15;11.83;;;10.73;;
74245;SDS011;62601;51.044;13.788;2023-06-22T05:53:36;12.43;;;11.23;;
74245;SDS011;62601;51.044;13.788;2023-06-22T05:55:56;12.33;;;11.20;;
74245;SDS011;62601;51.044;13.788;2023-06-22T05:58:16;13.87;;;11.50;;
74245;SDS011;62601;51.044;13.788;2023-06-22T06:00:36;12.83;;;10.67;;
74245;SDS011;62601;51.044;13.788;2023-06-22T06:02:56;16.77;;;10.73;;
74245;SDS011;62601;51.044;13.788;2023-06-22T06:05:16;12.10;;;11.00;;
74245;SDS011;62601;51.044;13.788;2023-06-22T06:07:36;13.20;;;11.90;;
74245;SDS011;62601;51.044;13.788;2023-06-22T06:09:56;12.60;;;11.40;;
74245;SDS011;62601;51.044;13.788;2023-06-22T06:12:17;14.20;;;11.80;;
74245;SDS011;62601;51.044;13.788;2023-06-22T06:14:37;15.87;;;12.10;;
74245;SDS011;62601;51.044;13.788;2023-06-22T06:16:57;15.23;;;12.30;;
74245;SDS011;62601;51.044;13.788;2023-06-22T06:19:17;12.63;;;11.00;;
74245;SDS011;62601;51.044;13.788;2023-06-22T06:21:37;11.43;;;10.47;;
74245;SDS011;62601;51.044;13.788;2023-06-22T06:23:57;12.07;;;10.97;;
74245;SDS011;62601;51.044;13.788;2023-06-22T06:26:17;11.07;;;10.07;;
74245;SDS011;62601;51.044;13.788;2023-06-22T06:28:37;11.60;;;10.60;;
74245;SDS011;62601;51.044;13.788;2023-06-22T06:30:57;13.93;;;11.30;;
74245;SDS011;62601;51.044;13.788;2023-06-22T06:33:17;12.33;;;11.23;;
74245;SDS011;62601;51.044;13.788;2023-06-22T06:35:37;12.00;;;10.87;;
74245;SDS011;62601;51.044;13.788;2023-06-22T06:37:58;13.50;;;12.20;;
74245;SDS011;62601;51.044;13.788;2023-06-22T06:40:18;13.40;;;11.23;;
74245;SDS011;62601;51.044;13.788;2023-06-22T06:42:45;11.73;;;10.60;;
74245;SDS011;62601;51.044;13.788;2023-06-22T06:45:06;13.00;;;11.70;;
74245;SDS011;62601;51.044;13.788;2023-06-22T06:47:26;11.90;;;10.63;;
74245;SDS011;62601;51.044;13.788;2023-06-22T06:49:46;12.13;;;11.13;;
74245;SDS011;62601;51.044;13.788;2023-06-22T06:52:06;12.40;;;11.20;;
74245;SDS011;62601;51.044;13.788;2023-06-22T06:54:26;12.50;;;11.20;;
74245;SDS011;62601;51.044;13.788;2023-06-22T06:56:46;12.13;;;11.03;;
74245;SDS011;62601;51.044;13.788;2023-06-22T06:59:06;11.57;;;10.37;;
74245;SDS011;62601;51.044;13.788;2023-06-22T07:01:27;11.80;;;10.90;;
74245;SDS011;62601;51.044;13.788;2023-06-22T07:03:47;12.60;;;11.40;;
74245;SDS011;62601;51.044;13.788;2023-06-22T07:06:08;12.23;;;11.13;;
74245;SDS011;62601;51.044;13.788;2023-06-22T07:08:28;12.60;;;11.50;;
74245;SDS011;62601;51.044;13.788;2023-06-22T07:10:48;12.00;;;10.80;;
74245;SDS011;62601;51.044;13.788;2023-06-22T07:13:08;12.30;;;11.13;;
74245;SDS011;62601;51.044;13.788;2023-06-22T07:15:28;13.30;;;12.10;;
74245;SDS011;62601;51.044;13.788;2023-06-22T07:17:48;11.73;;;10.67;;
74245;SDS011;62601;51.044;13.788;2023-06-22T07:20:08;13.27;;;12.03;;
74245;SDS011;62601;51.044;13.788;2023-06-22T07:22:29;12.30;;;11.17;;
74245;SDS011;62601;51.044;13.788;2023-06-22T07:24:49;12.90;;;11.70;;
74245;SDS011;62601;51.044;13.788;2023-06-22T07:27:09;13.23;;;12.07;;
74245;SDS011;62601;51.044;13.788;2023-06-22T07:29:29;15.00;;;13.57;;
74245;SDS011;62601;51.044;13.788;2023-06-22T07:31:49;14.47;;;13.00;;
74245;SDS011;62601;51.044;13.788;2023-06-22T07:34:09;14.27;;;12.97;;
74245;SDS011;62601;51.044;13.788;2023-06-22T07:36:30;13.23;;;12.03;;
74245;SDS011;62601;51.044;13.788;2023-06-22T07:38:50;12.47;;;11.37;;
74245;SDS011;62601;51.044;13.788;2023-06-22T07:41:10;13.57;;;12.43;;
74245;SDS011;62601;51.044;13.788;2023-06-22T07:43:30;13.30;;;12.30;;
74245;SDS011;62601;51.044;13.788;2023-06-22T07:45:50;13.30;;;11.93;;
74245;SDS011;62601;51.044;13.788;2023-06-22T07:48:10;13.20;;;11.90;;
74245;SDS011;62601;51.044;13.788;2023-06-22T07:50:30;14.43;;;13.13;;
74245;SDS011;62601;51.044;13.788;2023-06-22T07:52:50;12.70;;;11.50;;
74245;SDS011;62601;51.044;13.788;2023-06-22T07:55:11;13.23;;;12.03;;
74245;SDS011;62601;51.044;13.788;2023-06-22T07:57:31;13.90;;;12.60;;
74245;SDS011;62601;51.044;13.788;2023-06-22T07:59:51;12.63;;;11.30;;
74245;SDS011;62601;51.044;13.788;2023-06-22T08:02:11;14.40;;;13.20;;
74245;SDS011;62601;51.044;13.788;2023-06-22T08:04:31;12.33;;;11.23;;
74245;SDS011;62601;51.044;13.788;2023-06-22T08:06:51;11.77;;;10.67;;
74245;SDS011;62601;51.044;13.788;2023-06-22T08:09:11;11.90;;;10.83;;
74245;SDS011;62601;51.044;13.788;2023-06-22T08:11:31;11.27;;;10.47;;
74245;SDS011;62601;51.044;13.788;2023-06-22T08:13:51;11.90;;;10.70;;
74245;SDS011;62601;51.044;13.788;2023-06-22T08:16:12;12.90;;;11.70;;
74245;SDS011;62601;51.044;13.788;2023-06-22T08:18:32;13.47;;;11.80;;
74245;SDS011;62601;51.044;13.788;2023-06-22T08:20:52;11.40;;;10.50;;
74245;SDS011;62601;51.044;13.788;2023-06-22T08:23:12;12.70;;;10.93;;
74245;SDS011;62601;51.044;13.788;2023-06-22T08:25:33;10.77;;;9.87;;
74245;SDS011;62601;51.044;13.788;2023-06-22T08:27:53;10.07;;;9.17;;
74245;SDS011;62601;51.044;13.788;2023-06-22T08:30:13;10.57;;;9.67;;
74245;SDS011;62601;51.044;13.788;2023-06-22T08:32:33;10.73;;;9.80;;
74245;SDS011;62601;51.044;13.788;2023-06-22T08:34:54;11.90;;;10.70;;
74245;SDS011;62601;51.044;13.788;2023-06-22T08:37:14;11.07;;;10.03;;
74245;SDS011;62601;51.044;13.788;2023-06-22T08:39:34;9.50;;;8.60;;
74245;SDS011;62601;51.044;13.788;2023-06-22T08:41:54;11.07;;;10.03;;
74245;SDS011;62601;51.044;13.788;2023-06-22T08:44:17;12.20;;;9.70;;
74245;SDS011;62601;51.044;13.788;2023-06-22T08:46:38;10.03;;;9.23;;
74245;SDS011;62601;51.044;13.788;2023-06-22T08:48:58;10.67;;;9.67;;
74245;SDS011;62601;51.044;13.788;2023-06-22T08:51:18;10.30;;;9.30;;
74245;SDS011;62601;51.044;13.788;2023-06-22T08:53:39;9.97;;;9.07;;
74245;SDS011;62601;51.044;13.788;2023-06-22T08:55:59;9.80;;;9.00;;
74245;SDS011;62601;51.044;13.788;2023-06-22T08:58:19;9.17;;;8.33;;
74245;SDS011;62601;51.044;13.788;2023-06-22T09:00:39;9.50;;;8.80;;
74245;SDS011;62601;51.044;13.788;2023-06-22T09:02:59;9.23;;;8.33;;
74245;SDS011;62601;51.044;13.788;2023-06-22T09:05:20;10.77;;;9.77;;
74245;SDS011;62601;51.044;13.788;2023-06-22T09:07:40;10.50;;;9.70;;
74245;SDS011;62601;51.044;13.788;2023-06-22T09:10:00;9.80;;;8.90;;
74245;SDS011;62601;51.044;13.788;2023-06-22T09:12:20;13.03;;;11.93;;
74245;SDS011;62601;51.044;13.788;2023-06-22T09:14:40;10.30;;;9.50;;
74245;SDS011;62601;51.044;13.788;2023-06-22T09:17:00;9.03;;;8.23;;
74245;SDS011;62601;51.044;13.788;2023-06-22T09:19:20;10.07;;;9.27;;
74245;SDS011;62601;51.044;13.788;2023-06-22T09:21:41;10.70;;;9.80;;
74245;SDS011;62601;51.044;13.788;2023-06-22T09:24:01;10.33;;;9.53;;
74245;SDS011;62601;51.044;13.788;2023-06-22T09:26:21;13.33;;;11.00;;
74245;SDS011;62601;51.044;13.788;2023-06-22T09:28:41;10.00;;;9.07;;
74245;SDS011;62601;51.044;13.788;2023-06-22T09:31:01;9.57;;;8.57;;
74245;SDS011;62601;51.044;13.788;2023-06-22T09:33:21;10.33;;;9.03;;
74245;SDS011;62601;51.044;13.788;2023-06-22T09:35:41;10.47;;;9.57;;
74245;SDS011;62601;51.044;13.788;2023-06-22T09:38:01;9.43;;;8.73;;
74245;SDS011;62601;51.044;13.788;2023-06-22T09:40:21;9.80;;;9.00;;
74245;SDS011;62601;51.044;13.788;2023-06-22T09:42:42;10.60;;;9.70;;
74245;SDS011;62601;51.044;13.788;2023-06-22T09:45:02;12.73;;;11.73;;
74245;SDS011;62601;51.044;13.788;2023-06-22T09:47:22;9.00;;;8.30;;
74245;SDS011;62601;51.044;13.788;2023-06-22T09:49:42;9.50;;;8.60;;
74245;SDS011;62601;51.044;13.788;2023-06-22T09:52:02;9.07;;;8.37;;
74245;SDS011;62601;51.044;13.788;2023-06-22T09:54:23;8.70;;;8.00;;
74245;SDS011;62601;51.044;13.788;2023-06-22T09:56:43;9.63;;;8.73;;
74245;SDS011;62601;51.044;13.788;2023-06-22T09:59:03;11.10;;;10.20;;
74245;SDS011;62601;51.044;13.788;2023-06-22T10:01:23;10.07;;;9.17;;
74245;SDS011;62601;51.044;13.788;2023-06-22T10:03:43;10.60;;;9.70;;
74245;SDS011;62601;51.044;13.788;2023-06-22T10:06:03;8.93;;;8.23;;
74245;SDS011;62601;51.044;13.788;2023-06-22T10:08:23;9.50;;;8.67;;
74245;SDS011;62601;51.044;13.788;2023-06-22T10:10:43;10.17;;;9.33;;
74245;SDS011;62601;51.044;13.788;2023-06-22T10:13:07;10.53;;;9.63;;
74245;SDS011;62601;51.044;13.788;2023-06-22T10:15:28;9.60;;;8.70;;
74245;SDS011;62601;51.044;13.788;2023-06-22T10:17:48;9.37;;;8.23;;
74245;SDS011;62601;51.044;13.788;2023-06-22T10:20:08;9.50;;;8.60;;
74245;SDS011;62601;51.044;13.788;2023-06-22T10:22:28;10.67;;;9.77;;
74245;SDS011;62601;51.044;13.788;2023-06-22T10:24:48;9.90;;;8.77;;
74245;SDS011;62601;51.044;13.788;2023-06-22T10:27:08;9.97;;;9.07;;
74245;SDS011;62601;51.044;13.788;2023-06-22T10:29:28;11.23;;;10.13;;
74245;SDS011;62601;51.044;13.788;2023-06-22T10:31:48;9.90;;;9.10;;
74245;SDS011;62601;51.044;13.788;2023-06-22T10:34:09;10.60;;;9.60;;
74245;SDS011;62601;51.044;13.788;2023-06-22T10:36:29;10.03;;;9.23;;
74245;SDS011;62601;51.044;13.788;2023-06-22T10:38:49;10.67;;;9.70;;
74245;SDS011;62601;51.044;13.788;2023-06-22T10:41:09;11.63;;;9.53;;
74245;SDS011;62601;51.044;13.788;2023-06-22T10:43:29;16.10;;;14.70;;
74245;SDS011;62601;51.044;13.788;2023-06-22T10:45:49;10.87;;;9.87;;
74245;SDS011;62601;51.044;13.788;2023-06-22T10:48:09;10.70;;;9.47;;
74245;SDS011;62601;51.044;13.788;2023-06-22T10:50:29;10.90;;;10.00;;
74245;SDS011;62601;51.044;13.788;2023-06-22T10:52:49;10.90;;;10.00;;
74245;SDS011;62601;51.044;13.788;2023-06-22T10:55:09;10.60;;;9.70;;
74245;SDS011;62601;51.044;13.788;2023-06-22T10:57:30;11.10;;;10.07;;
74245;SDS011;62601;51.044;13.788;2023-06-22T10:59:50;11.10;;;10.20;;
74245;SDS011;62601;51.044;13.788;2023-06-22T11:02:10;10.23;;;9.33;;
74245;SDS011;62601;51.044;13.788;2023-06-22T11:04:30;9.80;;;9.00;;
74245;SDS011;62601;51.044;13.788;2023-06-22T11:06:50;10.30;;;9.40;;
74245;SDS011;62601;51.044;13.788;2023-06-22T11:09:10;10.13;;;9.37;;
74245;SDS011;62601;51.044;13.788;2023-06-22T11:11:30;9.60;;;8.70;;
74245;SDS011;62601;51.044;13.788;2023-06-22T11:13:50;9.97;;;9.07;;
74245;SDS011;62601;51.044;13.788;2023-06-22T11:16:10;9.90;;;9.10;;
74245;SDS011;62601;51.044;13.788;2023-06-22T11:18:31;10.30;;;9.47;;
74245;SDS011;62601;51.044;13.788;2023-06-22T11:20:51;10.33;;;9.43;;
74245;SDS011;62601;51.044;13.788;2023-06-22T11:23:11;10.73;;;9.93;;
74245;SDS011;62601;51.044;13.788;2023-06-22T11:25:31;10.10;;;9.20;;
74245;SDS011;62601;51.044;13.788;2023-06-22T11:27:51;9.87;;;9.07;;
74245;SDS011;62601;51.044;13.788;2023-06-22T11:30:12;10.10;;;9.30;;
74245;SDS011;62601;51.044;13.788;2023-06-22T11:32:32;10.40;;;9.50;;
74245;SDS011;62601;51.044;13.788;2023-06-22T11:34:52;9.87;;;9.07;;
74245;SDS011;62601;51.044;13.788;2023-06-22T11:37:12;10.97;;;10.07;;
74245;SDS011;62601;51.044;13.788;2023-06-22T11:39:32;10.60;;;9.70;;
74245;SDS011;62601;51.044;13.788;2023-06-22T11:41:52;10.87;;;9.10;;
74245;SDS011;62601;51.044;13.788;2023-06-22T11:44:12;10.27;;;9.47;;
74245;SDS011;62601;51.044;13.788;2023-06-22T11:46:32;10.80;;;9.90;;
74245;SDS011;62601;51.044;13.788;2023-06-22T11:48:52;10.23;;;9.43;;
74245;SDS011;62601;51.044;13.788;2023-06-22T11:51:12;10.87;;;10.00;;
74245;SDS011;62601;51.044;13.788;2023-06-22T11:53:33;9.30;;;8.60;;
74245;SDS011;62601;51.044;13.788;2023-06-22T11:55:53;10.57;;;9.47;;
74245;SDS011;62601;51.044;13.788;2023-06-22T11:58:13;10.67;;;9.77;;
74245;SDS011;62601;51.044;13.788;2023-06-22T12:00:33;10.47;;;9.50;;
74245;SDS011;62601;51.044;13.788;2023-06-22T12:02:53;10.80;;;10.00;;
74245;SDS011;62601;51.044;13.788;2023-06-22T12:05:13;10.80;;;9.90;;
74245;SDS011;62601;51.044;13.788;2023-06-22T12:07:33;11.10;;;10.10;;
74245;SDS011;62601;51.044;13.788;2023-06-22T12:09:54;10.10;;;9.30;;
74245;SDS011;62601;51.044;13.788;2023-06-22T12:12:14;9.73;;;8.83;;
74245;SDS011;62601;51.044;13.788;2023-06-22T12:14:35;10.53;;;9.53;;
74245;SDS011;62601;51.044;13.788;2023-06-22T12:16:55;12.30;;;9.70;;
74245;SDS011;62601;51.044;13.788;2023-06-22T12:19:15;9.93;;;8.93;;
74245;SDS011;62601;51.044;13.788;2023-06-22T12:21:36;10.70;;;9.80;;
74245;SDS011;62601;51.044;13.788;2023-06-22T12:23:56;10.50;;;9.60;;
74245;SDS011;62601;51.044;13.788;2023-06-22T12:26:16;10.57;;;9.67;;
74245;SDS011;62601;51.044;13.788;2023-06-22T12:28:36;9.80;;;9.00;;
74245;SDS011;62601;51.044;13.788;2023-06-22T12:30:56;10.33;;;9.43;;
74245;SDS011;62601;51.044;13.788;2023-06-22T12:33:17;9.80;;;9.10;;
74245;SDS011;62601;51.044;13.788;2023-06-22T12:35:37;9.73;;;8.93;;
74245;SDS011;62601;51.044;13.788;2023-06-22T12:37:57;10.83;;;9.90;;
74245;SDS011;62601;51.044;13.788;2023-06-22T12:40:17;9.40;;;8.60;;
74245;SDS011;62601;51.044;13.788;2023-06-22T12:42:37;10.03;;;9.23;;
74245;SDS011;62601;51.044;13.788;2023-06-22T12:44:57;9.90;;;9.10;;
74245;SDS011;62601;51.044;13.788;2023-06-22T12:47:17;10.03;;;9.33;;
74245;SDS011;62601;51.044;13.788;2023-06-22T12:49:37;9.57;;;8.87;;
74245;SDS011;62601;51.044;13.788;2023-06-22T12:51:57;9.90;;;9.10;;
74245;SDS011;62601;51.044;13.788;2023-06-22T12:54:17;10.63;;;9.50;;
74245;SDS011;62601;51.044;13.788;2023-06-22T12:56:38;10.30;;;9.53;;
74245;SDS011;62601;51.044;13.788;2023-06-22T12:58:58;10.60;;;9.70;;
74245;SDS011;62601;51.044;13.788;2023-06-22T13:01:18;10.10;;;9.23;;
74245;SDS011;62601;51.044;13.788;2023-06-22T13:03:38;9.33;;;8.70;;
74245;SDS011;62601;51.044;13.788;2023-06-22T13:05:58;9.67;;;8.97;;
74245;SDS011;62601;51.044;13.788;2023-06-22T13:08:18;9.97;;;9.17;;
74245;SDS011;62601;51.044;13.788;2023-06-22T13:10:38;10.00;;;9.23;;
74245;SDS011;62601;51.044;13.788;2023-06-22T13:12:58;9.10;;;8.47;;
74245;SDS011;62601;51.044;13.788;2023-06-22T13:15:18;9.47;;;8.83;;
74245;SDS011;62601;51.044;13.788;2023-06-22T13:17:38;8.93;;;8.23;;
74245;SDS011;62601;51.044;13.788;2023-06-22T13:19:59;9.63;;;8.97;;
74245;SDS011;62601;51.044;13.788;2023-06-22T13:22:29;9.50;;;8.80;;
74245;SDS011;62601;51.044;13.788;2023-06-22T13:24:49;9.37;;;8.67;;
74245;SDS011;62601;51.044;13.788;2023-06-22T13:27:09;9.80;;;9.10;;
74245;SDS011;62601;51.044;13.788;2023-06-22T13:29:29;9.43;;;8.80;;
74245;SDS011;62601;51.044;13.788;2023-06-22T13:31:49;10.20;;;9.37;;
74245;SDS011;62601;51.044;13.788;2023-06-22T13:34:10;9.87;;;8.93;;
74245;SDS011;62601;51.044;13.788;2023-06-22T13:36:30;10.53;;;9.83;;